Time,TemperatureF,DewpointF,PressureIn,WindDirection,WindDirectionDegrees,WindSpeedMPH,WindSpeedGustMPH,Humidity,HourlyPrecipIn,Conditions,Clouds,dailyrainin,SolarRadiationWatts/m^2,SoftwareType,DateUTC
2013-11-24 00:03:00,10.0,6.0,-100.00,SE,144,4.0,7.0,84,0.00,,,0.00,0.000000,,2013-11-24 05:03:00,
2013-11-24 00:12:00,10.0,6.0,-100.00,SE,144,4.0,7.0,84,0.00,,,0.00,0.000000,,2013-11-24 05:12:00,
2013-11-24 00:43:00,11.0,7.0,-100.00,NNE,33,2.0,4.0,85,0.00,,,0.00,0.000000,,2013-11-24 05:43:00,
2013-11-24 00:53:00,11.0,7.0,-100.00,NNE,33,2.0,4.0,85,0.00,,,0.00,0.000000,,2013-11-24 05:53:00,
2013-11-24 01:02:00,11.0,7.0,-100.00,NNE,33,2.0,4.0,85,0.00,,,0.00,0.000000,,2013-11-24 06:02:00,
2013-11-24 01:12:00,11.0,7.0,-100.00,NNE,33,2.0,4.0,85,0.00,,,0.00,0.000000,,2013-11-24 06:12:00,
2013-11-24 01:42:00,10.0,6.0,-100.00,NE,47,2.0,7.0,84,0.00,,,0.00,0.000000,,2013-11-24 06:42:00,
2013-11-24 01:52:00,10.0,6.0,-100.00,NE,47,2.0,7.0,84,0.00,,,0.00,0.000000,,2013-11-24 06:52:00,
2013-11-24 02:02:00,10.0,6.0,-100.00,NE,47,2.0,7.0,84,0.00,,,0.00,0.000000,,2013-11-24 07:02:00,
2013-11-24 02:11:00,10.0,6.0,-100.00,NE,47,2.0,7.0,84,0.00,,,0.00,0.000000,,2013-11-24 07:11:00,
2013-11-24 02:42:00,9.0,5.0,-100.00,ENE,77,3.0,5.0,83,0.00,,,0.00,0.000000,,2013-11-24 07:42:00,
2013-11-24 02:52:00,9.0,5.0,-100.00,ENE,77,3.0,5.0,83,0.00,,,0.00,0.000000,,2013-11-24 07:52:00,
2013-11-24 03:02:00,9.0,5.0,-100.00,ENE,77,3.0,5.0,83,0.00,,,0.00,0.000000,,2013-11-24 08:02:00,
2013-11-24 03:12:00,9.0,5.0,-100.00,ENE,77,3.0,5.0,83,0.00,,,0.00,0.000000,,2013-11-24 08:12:00,
2013-11-24 03:42:00,8.0,4.0,-100.00,East,91,2.0,4.0,83,0.00,,,0.00,0.000000,,2013-11-24 08:42:00,
2013-11-24 03:53:00,8.0,4.0,-100.00,East,91,2.0,4.0,83,0.00,,,0.00,0.000000,,2013-11-24 08:53:00,
2013-11-24 04:02:00,8.0,4.0,-100.00,East,91,2.0,4.0,83,0.00,,,0.00,0.000000,,2013-11-24 09:02:00,
2013-11-24 04:12:00,8.0,4.0,-100.00,East,91,2.0,4.0,83,0.00,,,0.00,0.000000,,2013-11-24 09:12:00,
2013-11-24 04:43:00,8.0,4.0,-100.00,SE,134,0.0,0.0,83,0.00,,,0.00,0.000000,,2013-11-24 09:43:00,
2013-11-24 04:54:00,8.0,4.0,-100.00,SE,134,0.0,0.0,83,0.00,,,0.00,0.000000,,2013-11-24 09:54:00,
2013-11-24 05:03:00,8.0,4.0,-100.00,SE,134,0.0,0.0,83,0.00,,,0.00,0.000000,,2013-11-24 10:03:00,
2013-11-24 05:13:00,8.0,4.0,-100.00,SE,134,0.0,0.0,83,0.00,,,0.00,0.000000,,2013-11-24 10:13:00,
2013-11-24 05:43:00,7.0,3.0,-100.00,SSE,151,0.0,0.0,82,0.00,,,0.00,0.000000,,2013-11-24 10:43:00,
2013-11-24 05:53:00,7.0,3.0,-100.00,SSE,151,0.0,0.0,82,0.00,,,0.00,0.000000,,2013-11-24 10:53:00,
2013-11-24 06:03:00,7.0,3.0,-100.00,SSE,151,0.0,0.0,82,0.00,,,0.00,0.000000,,2013-11-24 11:03:00,
2013-11-24 06:12:00,7.0,3.0,-100.00,SSE,151,0.0,0.0,82,0.00,,,0.00,0.000000,,2013-11-24 11:12:00,
2013-11-24 06:43:00,7.0,3.0,-100.00,SSW,193,0.0,0.0,83,0.00,,,0.00,0.000000,,2013-11-24 11:43:00,
2013-11-24 06:53:00,7.0,3.0,-100.00,SSW,193,0.0,0.0,83,0.00,,,0.00,0.000000,,2013-11-24 11:53:00,
2013-11-24 07:02:00,7.0,3.0,-100.00,SSW,193,0.0,0.0,83,0.00,,,0.00,0.000000,,2013-11-24 12:02:00,
2013-11-24 07:12:00,7.0,3.0,-100.00,SSW,193,0.0,0.0,83,0.00,,,0.00,0.000000,,2013-11-24 12:12:00,
2013-11-24 07:42:00,6.0,1.0,-100.00,NE,39,0.0,0.0,81,0.00,,,0.00,0.000000,,2013-11-24 12:42:00,
2013-11-24 07:53:00,6.0,1.0,-100.00,NE,39,0.0,0.0,81,0.00,,,0.00,0.000000,,2013-11-24 12:53:00,
2013-11-24 08:02:00,6.0,1.0,-100.00,NE,39,0.0,0.0,81,0.00,,,0.00,0.000000,,2013-11-24 13:02:00,
2013-11-24 08:12:00,6.0,1.0,-100.00,NE,39,0.0,0.0,81,0.00,,,0.00,0.000000,,2013-11-24 13:12:00,
2013-11-24 08:42:00,8.0,4.0,-100.00,East,90,0.0,0.0,83,0.00,,,0.00,0.000000,,2013-11-24 13:42:00,
2013-11-24 08:52:00,8.0,4.0,-100.00,East,90,0.0,0.0,83,0.00,,,0.00,0.000000,,2013-11-24 13:52:00,
2013-11-24 09:01:00,8.0,4.0,-100.00,East,90,0.0,0.0,83,0.00,,,0.00,0.000000,,2013-11-24 14:01:00,
2013-11-24 09:11:00,8.0,4.0,-100.00,East,90,0.0,0.0,83,0.00,,,0.00,0.000000,,2013-11-24 14:11:00,
2013-11-24 09:42:00,8.0,3.0,-100.00,SSE,168,0.0,0.0,81,0.00,,,0.00,10.000000,,2013-11-24 14:42:00,
2013-11-24 09:53:00,8.0,3.0,-100.00,SSE,168,0.0,0.0,81,0.00,,,0.00,10.000000,,2013-11-24 14:53:00,
2013-11-24 10:02:00,8.0,3.0,-100.00,SSE,168,0.0,0.0,81,0.00,,,0.00,10.000000,,2013-11-24 15:02:00,
2013-11-24 10:12:00,8.0,3.0,-100.00,SSE,168,0.0,0.0,81,0.00,,,0.00,10.000000,,2013-11-24 15:12:00,
2013-11-24 10:44:00,12.0,7.0,-100.00,SSE,165,0.0,0.0,80,0.00,,,0.00,36.000000,,2013-11-24 15:44:00,
2013-11-24 10:53:00,12.0,7.0,-100.00,SSE,165,0.0,0.0,80,0.00,,,0.00,36.000000,,2013-11-24 15:53:00,
2013-11-24 11:04:00,12.0,7.0,-100.00,SSE,165,0.0,0.0,80,0.00,,,0.00,36.000000,,2013-11-24 16:04:00,
2013-11-24 11:13:00,12.0,7.0,-100.00,SSE,165,0.0,0.0,80,0.00,,,0.00,36.000000,,2013-11-24 16:13:00,
2013-11-24 11:43:00,13.0,7.0,-100.00,SSE,168,0.0,0.0,78,0.00,,,0.00,57.000000,,2013-11-24 16:43:00,
2013-11-24 11:53:00,13.0,7.0,-100.00,SSE,168,0.0,0.0,78,0.00,,,0.00,57.000000,,2013-11-24 16:53:00,
2013-11-24 12:03:00,13.0,7.0,-100.00,SSE,168,0.0,0.0,78,0.00,,,0.00,57.000000,,2013-11-24 17:03:00,
2013-11-24 12:12:00,13.0,7.0,-100.00,SSE,168,0.0,0.0,78,0.00,,,0.00,57.000000,,2013-11-24 17:12:00,
2013-11-24 12:43:00,13.0,8.0,-100.00,ENE,78,5.0,7.0,81,0.00,,,0.00,62.000000,,2013-11-24 17:43:00,
2013-11-24 12:52:00,13.0,8.0,-100.00,ENE,78,5.0,7.0,81,0.00,,,0.00,62.000000,,2013-11-24 17:52:00,
2013-11-24 13:02:00,13.0,8.0,-100.00,ENE,78,5.0,7.0,81,0.00,,,0.00,62.000000,,2013-11-24 18:02:00,
2013-11-24 13:12:00,13.0,8.0,-100.00,ENE,78,5.0,7.0,81,0.00,,,0.00,62.000000,,2013-11-24 18:12:00,
2013-11-24 13:42:00,16.0,11.0,-100.00,SE,127,3.0,7.0,80,0.00,,,0.00,61.000000,,2013-11-24 18:42:00,
2013-11-24 13:53:00,16.0,11.0,-100.00,SE,127,3.0,7.0,80,0.00,,,0.00,61.000000,,2013-11-24 18:53:00,
2013-11-24 14:02:00,16.0,11.0,-100.00,SE,127,3.0,7.0,80,0.00,,,0.00,61.000000,,2013-11-24 19:02:00,
2013-11-24 14:12:00,16.0,11.0,-100.00,SE,127,3.0,7.0,80,0.00,,,0.00,61.000000,,2013-11-24 19:12:00,
2013-11-24 14:42:00,19.0,14.0,-100.00,East,84,0.0,4.0,80,0.00,,,0.00,67.000000,,2013-11-24 19:42:00,
2013-11-24 14:52:00,19.0,14.0,-100.00,East,84,0.0,4.0,80,0.00,,,0.00,67.000000,,2013-11-24 19:52:00,
2013-11-24 15:02:00,19.0,14.0,-100.00,East,84,0.0,4.0,80,0.00,,,0.00,67.000000,,2013-11-24 20:02:00,
2013-11-24 15:12:00,19.0,14.0,-100.00,East,84,0.0,4.0,80,0.00,,,0.00,67.000000,,2013-11-24 20:12:00,
2013-11-24 15:42:00,17.0,10.0,-100.00,WSW,237,5.0,10.0,75,0.00,,,0.00,48.000000,,2013-11-24 20:42:00,
2013-11-24 15:52:00,17.0,10.0,-100.00,WSW,237,5.0,10.0,75,0.00,,,0.00,48.000000,,2013-11-24 20:52:00,
2013-11-24 16:02:00,17.0,10.0,-100.00,WSW,237,5.0,10.0,75,0.00,,,0.00,48.000000,,2013-11-24 21:02:00,
2013-11-24 16:11:00,17.0,10.0,-100.00,WSW,237,5.0,10.0,75,0.00,,,0.00,48.000000,,2013-11-24 21:11:00,
2013-11-24 16:43:00,17.0,10.0,-100.00,SW,232,5.0,11.0,75,0.00,,,0.00,19.000000,,2013-11-24 21:43:00,
2013-11-24 16:54:00,17.0,10.0,-100.00,SW,232,5.0,11.0,75,0.00,,,0.00,19.000000,,2013-11-24 21:54:00,
2013-11-24 17:03:00,17.0,10.0,-100.00,SW,232,5.0,11.0,75,0.00,,,0.00,19.000000,,2013-11-24 22:03:00,
2013-11-24 17:13:00,17.0,10.0,-100.00,SW,232,5.0,11.0,75,0.00,,,0.00,19.000000,,2013-11-24 22:13:00,
2013-11-24 17:43:00,15.0,9.0,-100.00,SSE,166,4.0,8.0,78,0.00,,,0.00,3.000000,,2013-11-24 22:43:00,
2013-11-24 17:53:00,15.0,9.0,-100.00,SSE,166,4.0,8.0,78,0.00,,,0.00,3.000000,,2013-11-24 22:53:00,
2013-11-24 18:02:00,15.0,9.0,-100.00,SSE,166,4.0,8.0,78,0.00,,,0.00,3.000000,,2013-11-24 23:02:00,
2013-11-24 18:12:00,15.0,9.0,-100.00,SSE,166,4.0,8.0,78,0.00,,,0.00,3.000000,,2013-11-24 23:12:00,
2013-11-24 18:42:00,16.0,11.0,-100.00,ESE,112,6.0,8.0,81,0.00,,,0.00,0.000000,,2013-11-24 23:42:00,
2013-11-24 18:52:00,16.0,11.0,-100.00,ESE,112,6.0,8.0,81,0.00,,,0.00,0.000000,,2013-11-24 23:52:00,
2013-11-24 19:02:00,16.0,11.0,-100.00,ESE,112,6.0,8.0,81,0.00,,,0.00,0.000000,,2013-11-25 00:02:00,
2013-11-24 19:12:00,16.0,11.0,-100.00,ESE,112,6.0,8.0,81,0.00,,,0.00,0.000000,,2013-11-25 00:12:00,
2013-11-24 19:43:00,16.0,11.0,-100.00,ESE,113,9.0,11.0,82,0.00,,,-99.99,0.000000,,2013-11-25 00:43:00,
2013-11-24 19:52:00,16.0,11.0,-100.00,ESE,113,9.0,11.0,82,0.00,,,-99.99,0.000000,,2013-11-25 00:52:00,
2013-11-24 20:02:00,16.0,11.0,-100.00,ESE,113,9.0,11.0,82,0.00,,,-99.99,0.000000,,2013-11-25 01:02:00,
2013-11-24 20:11:00,16.0,11.0,-100.00,ESE,113,9.0,11.0,82,0.00,,,-99.99,0.000000,,2013-11-25 01:11:00,
2013-11-24 20:43:00,18.0,15.0,-100.00,SE,141,9.0,12.0,89,0.00,,,0.00,0.000000,,2013-11-25 01:43:00,
2013-11-24 20:53:00,18.0,15.0,-100.00,SE,141,9.0,12.0,89,0.00,,,0.00,0.000000,,2013-11-25 01:53:00,
2013-11-24 21:01:00,18.0,15.0,-100.00,SE,141,9.0,12.0,89,0.00,,,0.00,0.000000,,2013-11-25 02:01:00,
2013-11-24 21:12:00,18.0,15.0,-100.00,SE,141,9.0,12.0,89,0.00,,,0.00,0.000000,,2013-11-25 02:12:00,
2013-11-24 21:43:00,20.0,17.0,-100.00,South,179,19.0,30.0,89,0.00,,,0.00,0.000000,,2013-11-25 02:43:00,
2013-11-24 21:52:00,20.0,17.0,-100.00,South,179,19.0,30.0,89,0.00,,,0.00,0.000000,,2013-11-25 02:52:00,
2013-11-24 22:02:00,20.0,17.0,-100.00,South,179,19.0,30.0,89,0.00,,,0.00,0.000000,,2013-11-25 03:02:00,
2013-11-24 22:11:00,20.0,17.0,-100.00,South,179,19.0,30.0,89,0.00,,,0.00,0.000000,,2013-11-25 03:11:00,
2013-11-24 22:43:00,20.0,16.0,-100.00,South,175,20.0,28.0,85,0.00,,,0.00,0.000000,,2013-11-25 03:43:00,
2013-11-24 22:53:00,20.0,16.0,-100.00,South,175,20.0,28.0,85,0.00,,,0.00,0.000000,,2013-11-25 03:53:00,
2013-11-24 23:03:00,20.0,16.0,-100.00,South,175,20.0,28.0,85,0.00,,,0.00,0.000000,,2013-11-25 04:03:00,
2013-11-24 23:13:00,20.0,16.0,-100.00,South,175,20.0,28.0,85,0.00,,,0.00,0.000000,,2013-11-25 04:13:00,
2013-11-24 23:43:00,21.0,16.0,-100.00,South,171,16.0,28.0,82,0.00,,,0.00,0.000000,,2013-11-25 04:43:00,
2013-11-24 23:53:00,21.0,16.0,-100.00,South,171,16.0,28.0,82,0.00,,,0.00,0.000000,,2013-11-25 04:53:00,